sensor_id;sensor_type;location;lat;lon;timestamp;P1;durP1;ratioP1;P2;durP2;ratioP2
44642;SDS011;33930;-34.276;150.954;2022-09-02T00:01:16;9.63;;;2.53;;
44642;SDS011;33930;-34.276;150.954;2022-09-02T00:04:03;16.83;;;3.25;;
44642;SDS011;33930;-34.276;150.954;2022-09-02T00:06:33;8.05;;;2.00;;
44642;SDS011;33930;-34.276;150.954;2022-09-02T00:09:01;7.57;;;2.00;;
44642;SDS011;33930;-34.276;150.954;2022-09-02T00:11:31;9.85;;;2.85;;
44642;SDS011;33930;-34.276;150.954;2022-09-02T00:14:01;18.42;;;2.47;;
44642;SDS011;33930;-34.276;150.954;2022-09-02T00:16:31;14.55;;;2.22;;
44642;SDS011;33930;-34.276;150.954;2022-09-02T00:18:59;9.15;;;2.10;;
44642;SDS011;33930;-34.276;150.954;2022-09-02T00:21:27;11.32;;;2.40;;
44642;SDS011;33930;-34.276;150.954;2022-09-02T00:23:55;10.00;;;2.33;;
44642;SDS011;33930;-34.276;150.954;2022-09-02T00:26:22;10.65;;;2.58;;
44642;SDS011;33930;-34.276;150.954;2022-09-02T00:28:50;5.72;;;2.00;;
44642;SDS011;33930;-34.276;150.954;2022-09-02T00:31:18;20.67;;;2.70;;
44642;SDS011;33930;-34.276;150.954;2022-09-02T00:33:45;12.05;;;2.92;;
44642;SDS011;33930;-34.276;150.954;2022-09-02T00:36:14;12.75;;;2.47;;
44642;SDS011;33930;-34.276;150.954;2022-09-02T00:38:42;9.13;;;1.95;;
44642;SDS011;33930;-34.276;150.954;2022-09-02T00:41:09;11.82;;;2.08;;
44642;SDS011;33930;-34.276;150.954;2022-09-02T00:43:43;15.57;;;2.40;;
44642;SDS011;33930;-34.276;150.954;2022-09-02T00:46:14;15.75;;;3.17;;
44642;SDS011;33930;-34.276;150.954;2022-09-02T00:48:53;12.13;;;2.38;;
44642;SDS011;33930;-34.276;150.954;2022-09-02T00:51:21;11.75;;;2.30;;
44642;SDS011;33930;-34.276;150.954;2022-09-02T00:53:51;16.85;;;2.70;;
44642;SDS011;33930;-34.276;150.954;2022-09-02T00:56:24;10.45;;;2.20;;
44642;SDS011;33930;-34.276;150.954;2022-09-02T00:58:55;9.50;;;1.65;;
44642;SDS011;33930;-34.276;150.954;2022-09-02T01:01:24;14.57;;;3.10;;
44642;SDS011;33930;-34.276;150.954;2022-09-02T01:03:51;17.20;;;3.22;;
44642;SDS011;33930;-34.276;150.954;2022-09-02T01:06:20;17.40;;;2.92;;
44642;SDS011;33930;-34.276;150.954;2022-09-02T01:08:51;10.43;;;1.83;;
44642;SDS011;33930;-34.276;150.954;2022-09-02T01:11:35;14.55;;;2.63;;
44642;SDS011;33930;-34.276;150.954;2022-09-02T01:14:08;23.83;;;2.60;;
44642;SDS011;33930;-34.276;150.954;2022-09-02T01:16:39;20.35;;;3.08;;
44642;SDS011;33930;-34.276;150.954;2022-09-02T01:19:20;28.17;;;5.22;;
44642;SDS011;33930;-34.276;150.954;2022-09-02T01:21:49;14.80;;;2.60;;
44642;SDS011;33930;-34.276;150.954;2022-09-02T01:24:18;16.75;;;2.97;;
44642;SDS011;33930;-34.276;150.954;2022-09-02T01:26:46;14.95;;;2.33;;
44642;SDS011;33930;-34.276;150.954;2022-09-02T01:29:16;14.05;;;2.00;;
44642;SDS011;33930;-34.276;150.954;2022-09-02T01:31:44;23.05;;;3.60;;
44642;SDS011;33930;-34.276;150.954;2022-09-02T01:34:11;9.65;;;2.22;;
44642;SDS011;33930;-34.276;150.954;2022-09-02T01:36:39;11.18;;;2.58;;
44642;SDS011;33930;-34.276;150.954;2022-09-02T01:41:46;11.18;;;2.75;;
44642;SDS011;33930;-34.276;150.954;2022-09-02T01:44:14;17.70;;;2.50;;
44642;SDS011;33930;-34.276;150.954;2022-09-02T01:46:42;9.93;;;1.80;;
44642;SDS011;33930;-34.276;150.954;2022-09-02T01:49:09;18.63;;;3.00;;
44642;SDS011;33930;-34.276;150.954;2022-09-02T01:51:37;9.05;;;2.10;;
44642;SDS011;33930;-34.276;150.954;2022-09-02T01:54:05;16.98;;;2.20;;
44642;SDS011;33930;-34.276;150.954;2022-09-02T01:56:33;17.50;;;2.38;;
44642;SDS011;33930;-34.276;150.954;2022-09-02T01:59:00;16.40;;;2.13;;
44642;SDS011;33930;-34.276;150.954;2022-09-02T02:01:28;15.32;;;2.92;;
44642;SDS011;33930;-34.276;150.954;2022-09-02T02:03:55;11.38;;;2.20;;
44642;SDS011;33930;-34.276;150.954;2022-09-02T02:06:22;18.27;;;3.25;;
44642;SDS011;33930;-34.276;150.954;2022-09-02T02:08:50;17.75;;;2.90;;
44642;SDS011;33930;-34.276;150.954;2022-09-02T02:11:18;13.30;;;2.20;;
44642;SDS011;33930;-34.276;150.954;2022-09-02T02:13:48;12.80;;;1.75;;
44642;SDS011;33930;-34.276;150.954;2022-09-02T02:16:16;13.95;;;2.15;;
44642;SDS011;33930;-34.276;150.954;2022-09-02T02:18:43;14.00;;;2.17;;
44642;SDS011;33930;-34.276;150.954;2022-09-02T02:21:10;12.20;;;2.45;;
44642;SDS011;33930;-34.276;150.954;2022-09-02T02:23:38;12.98;;;2.70;;
44642;SDS011;33930;-34.276;150.954;2022-09-02T02:26:05;9.45;;;1.48;;
44642;SDS011;33930;-34.276;150.954;2022-09-02T02:28:33;11.63;;;2.30;;
44642;SDS011;33930;-34.276;150.954;2022-09-02T02:31:01;10.63;;;2.22;;
44642;SDS011;33930;-34.276;150.954;2022-09-02T02:33:29;8.75;;;1.40;;
44642;SDS011;33930;-34.276;150.954;2022-09-02T02:35:56;9.48;;;1.77;;
44642;SDS011;33930;-34.276;150.954;2022-09-02T02:38:24;14.40;;;2.00;;
44642;SDS011;33930;-34.276;150.954;2022-09-02T02:40:55;15.15;;;2.20;;
44642;SDS011;33930;-34.276;150.954;2022-09-02T02:43:23;9.82;;;2.08;;
44642;SDS011;33930;-34.276;150.954;2022-09-02T02:45:51;9.75;;;1.98;;
44642;SDS011;33930;-34.276;150.954;2022-09-02T02:48:19;4.78;;;1.17;;
44642;SDS011;33930;-34.276;150.954;2022-09-02T03:11:19;8.93;;;2.40;;
44642;SDS011;33930;-34.276;150.954;2022-09-02T03:13:51;14.45;;;2.42;;
44642;SDS011;33930;-34.276;150.954;2022-09-02T03:16:18;12.82;;;1.92;;
44642;SDS011;33930;-34.276;150.954;2022-09-02T03:18:46;7.22;;;1.77;;
44642;SDS011;33930;-34.276;150.954;2022-09-02T03:21:15;12.70;;;2.45;;
44642;SDS011;33930;-34.276;150.954;2022-09-02T03:23:43;8.82;;;2.28;;
44642;SDS011;33930;-34.276;150.954;2022-09-02T03:26:15;11.95;;;1.58;;
44642;SDS011;33930;-34.276;150.954;2022-09-02T03:31:15;11.73;;;2.15;;
44642;SDS011;33930;-34.276;150.954;2022-09-02T03:33:44;11.05;;;2.85;;
44642;SDS011;33930;-34.276;150.954;2022-09-02T03:36:22;12.25;;;1.85;;
44642;SDS011;33930;-34.276;150.954;2022-09-02T03:38:55;6.32;;;1.40;;
44642;SDS011;33930;-34.276;150.954;2022-09-02T03:41:25;11.25;;;1.83;;
44642;SDS011;33930;-34.276;150.954;2022-09-02T03:43:52;6.72;;;1.65;;
44642;SDS011;33930;-34.276;150.954;2022-09-02T03:48:55;9.20;;;1.98;;
44642;SDS011;33930;-34.276;150.954;2022-09-02T03:51:22;11.88;;;2.05;;
44642;SDS011;33930;-34.276;150.954;2022-09-02T03:53:51;12.30;;;2.42;;
44642;SDS011;33930;-34.276;150.954;2022-09-02T03:56:19;17.88;;;1.67;;
44642;SDS011;33930;-34.276;150.954;2022-09-02T03:58:48;8.90;;;2.45;;
44642;SDS011;33930;-34.276;150.954;2022-09-02T04:01:18;16.92;;;2.42;;
44642;SDS011;33930;-34.276;150.954;2022-09-02T04:03:50;14.43;;;1.80;;
44642;SDS011;33930;-34.276;150.954;2022-09-02T04:06:18;12.27;;;1.60;;
44642;SDS011;33930;-34.276;150.954;2022-09-02T04:08:48;8.82;;;1.85;;
44642;SDS011;33930;-34.276;150.954;2022-09-02T04:11:17;14.43;;;2.10;;
44642;SDS011;33930;-34.276;150.954;2022-09-02T04:13:47;13.00;;;1.77;;
44642;SDS011;33930;-34.276;150.954;2022-09-02T04:16:17;17.33;;;3.03;;
44642;SDS011;33930;-34.276;150.954;2022-09-02T04:18:56;15.52;;;2.20;;
44642;SDS011;33930;-34.276;150.954;2022-09-02T04:21:26;10.85;;;2.28;;
44642;SDS011;33930;-34.276;150.954;2022-09-02T04:23:57;24.58;;;2.92;;
44642;SDS011;33930;-34.276;150.954;2022-09-02T04:26:24;14.02;;;2.15;;
44642;SDS011;33930;-34.276;150.954;2022-09-02T04:28:52;10.30;;;2.30;;
44642;SDS011;33930;-34.276;150.954;2022-09-02T04:31:19;7.90;;;2.58;;
44642;SDS011;33930;-34.276;150.954;2022-09-02T04:33:50;14.27;;;2.20;;
44642;SDS011;33930;-34.276;150.954;2022-09-02T04:36:18;9.70;;;2.28;;
44642;SDS011;33930;-34.276;150.954;2022-09-02T04:38:46;5.85;;;2.25;;
44642;SDS011;33930;-34.276;150.954;2022-09-02T04:41:20;11.57;;;2.03;;
44642;SDS011;33930;-34.276;150.954;2022-09-02T04:43:50;10.95;;;2.33;;
44642;SDS011;33930;-34.276;150.954;2022-09-02T04:46:19;11.90;;;2.03;;
44642;SDS011;33930;-34.276;150.954;2022-09-02T04:48:47;19.25;;;2.22;;
44642;SDS011;33930;-34.276;150.954;2022-09-02T04:51:19;14.63;;;1.98;;
44642;SDS011;33930;-34.276;150.954;2022-09-02T04:53:49;11.60;;;1.88;;
44642;SDS011;33930;-34.276;150.954;2022-09-02T04:56:19;7.93;;;2.90;;
44642;SDS011;33930;-34.276;150.954;2022-09-02T04:58:50;12.02;;;1.95;;
44642;SDS011;33930;-34.276;150.954;2022-09-02T05:01:20;13.95;;;2.17;;
44642;SDS011;33930;-34.276;150.954;2022-09-02T05:03:50;9.95;;;2.28;;
44642;SDS011;33930;-34.276;150.954;2022-09-02T05:06:20;8.68;;;3.20;;
44642;SDS011;33930;-34.276;150.954;2022-09-02T05:08:55;8.80;;;1.55;;
44642;SDS011;33930;-34.276;150.954;2022-09-02T05:11:25;7.03;;;1.48;;
44642;SDS011;33930;-34.276;150.954;2022-09-02T05:13:57;11.10;;;1.38;;
44642;SDS011;33930;-34.276;150.954;2022-09-02T06:20:43;13.60;;;2.97;;
44642;SDS011;33930;-34.276;150.954;2022-09-02T06:23:12;12.75;;;3.30;;
44642;SDS011;33930;-34.276;150.954;2022-09-02T06:25:42;15.88;;;3.58;;
44642;SDS011;33930;-34.276;150.954;2022-09-02T06:28:11;10.88;;;3.03;;
44642;SDS011;33930;-34.276;150.954;2022-09-02T06:30:43;15.63;;;2.60;;
44642;SDS011;33930;-34.276;150.954;2022-09-02T06:33:13;7.72;;;2.38;;
44642;SDS011;33930;-34.276;150.954;2022-09-02T06:35:41;15.25;;;2.67;;
44642;SDS011;33930;-34.276;150.954;2022-09-02T06:38:10;15.38;;;3.42;;
44642;SDS011;33930;-34.276;150.954;2022-09-02T06:40:46;10.40;;;3.08;;
44642;SDS011;33930;-34.276;150.954;2022-09-02T06:43:15;15.35;;;3.38;;
44642;SDS011;33930;-34.276;150.954;2022-09-02T06:45:43;22.92;;;3.45;;
44642;SDS011;33930;-34.276;150.954;2022-09-02T06:48:11;13.18;;;3.47;;
44642;SDS011;33930;-34.276;150.954;2022-09-02T06:50:42;21.85;;;3.67;;
44642;SDS011;33930;-34.276;150.954;2022-09-02T06:53:10;15.43;;;3.15;;
44642;SDS011;33930;-34.276;150.954;2022-09-02T06:55:39;18.77;;;2.90;;
44642;SDS011;33930;-34.276;150.954;2022-09-02T06:58:08;17.05;;;2.50;;
44642;SDS011;33930;-34.276;150.954;2022-09-02T07:00:38;15.77;;;3.13;;
44642;SDS011;33930;-34.276;150.954;2022-09-02T07:03:06;24.85;;;4.15;;
44642;SDS011;33930;-34.276;150.954;2022-09-02T07:06:05;25.13;;;3.65;;
44642;SDS011;33930;-34.276;150.954;2022-09-02T07:08:39;18.80;;;4.13;;
44642;SDS011;33930;-34.276;150.954;2022-09-02T07:11:14;13.25;;;2.50;;
44642;SDS011;33930;-34.276;150.954;2022-09-02T07:13:46;14.63;;;2.97;;
44642;SDS011;33930;-34.276;150.954;2022-09-02T07:16:14;18.50;;;3.03;;
44642;SDS011;33930;-34.276;150.954;2022-09-02T07:18:42;19.58;;;3.22;;
44642;SDS011;33930;-34.276;150.954;2022-09-02T07:21:10;15.60;;;2.83;;
44642;SDS011;33930;-34.276;150.954;2022-09-02T07:23:38;16.77;;;3.00;;
44642;SDS011;33930;-34.276;150.954;2022-09-02T07:26:13;30.95;;;3.45;;
44642;SDS011;33930;-34.276;150.954;2022-09-02T07:28:42;18.92;;;3.40;;
44642;SDS011;33930;-34.276;150.954;2022-09-02T07:31:09;16.63;;;3.58;;
44642;SDS011;33930;-34.276;150.954;2022-09-02T07:33:37;12.55;;;2.38;;
44642;SDS011;33930;-34.276;150.954;2022-09-02T07:36:05;17.98;;;3.80;;
44642;SDS011;33930;-34.276;150.954;2022-09-02T07:38:34;26.45;;;4.15;;
44642;SDS011;33930;-34.276;150.954;2022-09-02T07:41:03;26.83;;;4.80;;
44642;SDS011;33930;-34.276;150.954;2022-09-02T07:43:31;22.85;;;4.15;;
44642;SDS011;33930;-34.276;150.954;2022-09-02T07:45:59;20.25;;;3.90;;
44642;SDS011;33930;-34.276;150.954;2022-09-02T07:48:28;24.10;;;3.97;;
44642;SDS011;33930;-34.276;150.954;2022-09-02T07:50:56;26.27;;;4.15;;
44642;SDS011;33930;-34.276;150.954;2022-09-02T07:53:24;22.75;;;4.53;;
44642;SDS011;33930;-34.276;150.954;2022-09-02T07:55:52;20.35;;;4.15;;
44642;SDS011;33930;-34.276;150.954;2022-09-02T07:58:20;29.13;;;6.07;;
44642;SDS011;33930;-34.276;150.954;2022-09-02T08:00:48;23.67;;;4.47;;
44642;SDS011;33930;-34.276;150.954;2022-09-02T08:03:16;25.70;;;4.22;;
44642;SDS011;33930;-34.276;150.954;2022-09-02T08:05:44;21.02;;;4.30;;
44642;SDS011;33930;-34.276;150.954;2022-09-02T08:08:12;20.70;;;3.08;;
44642;SDS011;33930;-34.276;150.954;2022-09-02T08:10:41;18.15;;;3.35;;
44642;SDS011;33930;-34.276;150.954;2022-09-02T08:13:09;27.88;;;4.82;;
44642;SDS011;33930;-34.276;150.954;2022-09-02T08:15:36;19.60;;;3.88;;
44642;SDS011;33930;-34.276;150.954;2022-09-02T08:18:04;27.35;;;5.15;;
44642;SDS011;33930;-34.276;150.954;2022-09-02T08:20:32;27.17;;;4.03;;
44642;SDS011;33930;-34.276;150.954;2022-09-02T08:23:01;17.33;;;2.50;;
44642;SDS011;33930;-34.276;150.954;2022-09-02T08:25:31;33.40;;;4.45;;
44642;SDS011;33930;-34.276;150.954;2022-09-02T08:27:59;29.58;;;5.97;;
44642;SDS011;33930;-34.276;150.954;2022-09-02T08:30:27;24.50;;;5.47;;
44642;SDS011;33930;-34.276;150.954;2022-09-02T08:32:55;30.65;;;4.90;;
44642;SDS011;33930;-34.276;150.954;2022-09-02T08:35:22;28.05;;;4.80;;
44642;SDS011;33930;-34.276;150.954;2022-09-02T08:37:50;33.88;;;5.18;;
44642;SDS011;33930;-34.276;150.954;2022-09-02T08:40:21;34.42;;;4.97;;
44642;SDS011;33930;-34.276;150.954;2022-09-02T08:42:51;31.40;;;5.00;;
44642;SDS011;33930;-34.276;150.954;2022-09-02T08:45:26;37.17;;;5.30;;
44642;SDS011;33930;-34.276;150.954;2022-09-02T08:48:03;33.50;;;5.43;;
44642;SDS011;33930;-34.276;150.954;2022-09-02T08:50:38;38.47;;;6.07;;
44642;SDS011;33930;-34.276;150.954;2022-09-02T08:55:57;36.38;;;5.55;;
44642;SDS011;33930;-34.276;150.954;2022-09-02T08:58:26;35.63;;;5.05;;
44642;SDS011;33930;-34.276;150.954;2022-09-02T09:17:43;24.73;;;3.23;;
44642;SDS011;33930;-34.276;150.954;2022-09-02T09:20:19;21.13;;;2.92;;
44642;SDS011;33930;-34.276;150.954;2022-09-02T09:22:51;24.77;;;2.88;;
44642;SDS011;33930;-34.276;150.954;2022-09-02T09:25:22;26.65;;;4.20;;
44642;SDS011;33930;-34.276;150.954;2022-09-02T09:28:00;26.30;;;4.75;;
44642;SDS011;33930;-34.276;150.954;2022-09-02T09:30:27;26.45;;;4.32;;
44642;SDS011;33930;-34.276;150.954;2022-09-02T09:32:56;21.60;;;3.90;;
44642;SDS011;33930;-34.276;150.954;2022-09-02T09:35:25;30.90;;;4.32;;
44642;SDS011;33930;-34.276;150.954;2022-09-02T09:38:11;24.63;;;3.45;;
44642;SDS011;33930;-34.276;150.954;2022-09-02T09:40:39;21.38;;;3.05;;
44642;SDS011;33930;-34.276;150.954;2022-09-02T09:45:39;27.95;;;4.07;;
44642;SDS011;33930;-34.276;150.954;2022-09-02T09:48:26;21.75;;;3.55;;
44642;SDS011;33930;-34.276;150.954;2022-09-02T09:53:26;19.77;;;4.47;;
44642;SDS011;33930;-34.276;150.954;2022-09-02T09:55:56;19.85;;;4.22;;
44642;SDS011;33930;-34.276;150.954;2022-09-02T10:01:17;28.73;;;4.53;;
44642;SDS011;33930;-34.276;150.954;2022-09-02T10:03:47;20.13;;;2.63;;
44642;SDS011;33930;-34.276;150.954;2022-09-02T10:06:41;23.88;;;4.07;;
44642;SDS011;33930;-34.276;150.954;2022-09-02T10:14:34;22.60;;;3.45;;
44642;SDS011;33930;-34.276;150.954;2022-09-02T10:22:57;28.52;;;4.45;;
44642;SDS011;33930;-34.276;150.954;2022-09-02T10:25:41;18.55;;;3.97;;
44642;SDS011;33930;-34.276;150.954;2022-09-02T10:36:12;18.60;;;3.35;;
44642;SDS011;33930;-34.276;150.954;2022-09-02T10:38:53;33.08;;;4.75;;
44642;SDS011;33930;-34.276;150.954;2022-09-02T10:41:38;18.83;;;4.05;;
44642;SDS011;33930;-34.276;150.954;2022-09-02T10:47:03;23.85;;;4.78;;
44642;SDS011;33930;-34.276;150.954;2022-09-02T10:49:55;18.83;;;3.47;;
44642;SDS011;33930;-34.276;150.954;2022-09-02T10:52:39;17.15;;;4.28;;
44642;SDS011;33930;-34.276;150.954;2022-09-02T11:01:02;14.15;;;3.58;;
44642;SDS011;33930;-34.276;150.954;2022-09-02T11:06:38;20.77;;;2.90;;
44642;SDS011;33930;-34.276;150.954;2022-09-02T11:09:31;26.65;;;4.50;;
44642;SDS011;33930;-34.276;150.954;2022-09-02T11:12:13;19.50;;;3.92;;
44642;SDS011;33930;-34.276;150.954;2022-09-02T11:15:06;20.80;;;2.60;;
44642;SDS011;33930;-34.276;150.954;2022-09-02T11:28:32;15.60;;;3.90;;
44642;SDS011;33930;-34.276;150.954;2022-09-02T11:31:42;20.43;;;3.30;;
44642;SDS011;33930;-34.276;150.954;2022-09-02T11:34:10;20.85;;;3.90;;
44642;SDS011;33930;-34.276;150.954;2022-09-02T11:37:10;24.90;;;4.57;;
44642;SDS011;33930;-34.276;150.954;2022-09-02T11:39:49;20.77;;;3.88;;
44642;SDS011;33930;-34.276;150.954;2022-09-02T11:53:41;7.60;;;2.20;;
44642;SDS011;33930;-34.276;150.954;2022-09-02T11:56:20;11.70;;;2.22;;
44642;SDS011;33930;-34.276;150.954;2022-09-02T11:58:53;10.40;;;2.40;;
44642;SDS011;33930;-34.276;150.954;2022-09-02T12:07:23;11.45;;;2.47;;
44642;SDS011;33930;-34.276;150.954;2022-09-02T12:09:46;16.00;;;2.40;;
44642;SDS011;33930;-34.276;150.954;2022-09-02T12:15:01;12.18;;;2.05;;
44642;SDS011;33930;-34.276;150.954;2022-09-02T12:26:19;15.65;;;2.95;;
44642;SDS011;33930;-34.276;150.954;2022-09-02T12:31:52;15.60;;;2.30;;
44642;SDS011;33930;-34.276;150.954;2022-09-02T12:44:45;15.55;;;2.53;;
44642;SDS011;33930;-34.276;150.954;2022-09-02T12:52:49;18.25;;;3.38;;
44642;SDS011;33930;-34.276;150.954;2022-09-02T12:55:26;36.17;;;4.13;;
44642;SDS011;33930;-34.276;150.954;2022-09-02T12:58:07;18.45;;;3.33;;
44642;SDS011;33930;-34.276;150.954;2022-09-02T13:01:02;16.27;;;3.85;;
44642;SDS011;33930;-34.276;150.954;2022-09-02T13:03:38;23.50;;;4.07;;
44642;SDS011;33930;-34.276;150.954;2022-09-02T13:12:05;14.88;;;3.20;;
44642;SDS011;33930;-34.276;150.954;2022-09-02T13:26:25;13.00;;;1.98;;
44642;SDS011;33930;-34.276;150.954;2022-09-02T13:34:45;13.95;;;2.63;;
44642;SDS011;33930;-34.276;150.954;2022-09-02T13:39:53;12.18;;;2.45;;
44642;SDS011;33930;-34.276;150.954;2022-09-02T13:42:25;13.65;;;2.63;;
44642;SDS011;33930;-34.276;150.954;2022-09-02T13:45:10;17.13;;;2.63;;
44642;SDS011;33930;-34.276;150.954;2022-09-02T13:47:43;20.60;;;3.05;;
44642;SDS011;33930;-34.276;150.954;2022-09-02T13:50:13;13.80;;;2.10;;
44642;SDS011;33930;-34.276;150.954;2022-09-02T13:52:43;9.05;;;1.67;;
44642;SDS011;33930;-34.276;150.954;2022-09-02T13:55:14;10.65;;;1.88;;
44642;SDS011;33930;-34.276;150.954;2022-09-02T13:57:46;13.65;;;3.03;;
44642;SDS011;33930;-34.276;150.954;2022-09-02T14:00:30;15.65;;;2.90;;
44642;SDS011;33930;-34.276;150.954;2022-09-02T14:03:05;12.23;;;3.35;;
44642;SDS011;33930;-34.276;150.954;2022-09-02T14:05:36;10.13;;;1.85;;
44642;SDS011;33930;-34.276;150.954;2022-09-02T14:08:06;15.88;;;2.38;;
44642;SDS011;33930;-34.276;150.954;2022-09-02T14:10:38;18.25;;;2.20;;
44642;SDS011;33930;-34.276;150.954;2022-09-02T14:13:10;15.90;;;2.95;;
44642;SDS011;33930;-34.276;150.954;2022-09-02T14:15:38;14.15;;;3.38;;
44642;SDS011;33930;-34.276;150.954;2022-09-02T14:18:06;19.25;;;2.78;;
44642;SDS011;33930;-34.276;150.954;2022-09-02T14:20:34;11.93;;;2.22;;
44642;SDS011;33930;-34.276;150.954;2022-09-02T14:23:22;13.57;;;2.40;;
44642;SDS011;33930;-34.276;150.954;2022-09-02T14:25:54;18.27;;;2.00;;
44642;SDS011;33930;-34.276;150.954;2022-09-02T14:28:25;11.98;;;2.70;;
44642;SDS011;33930;-34.276;150.954;2022-09-02T14:31:07;10.25;;;2.13;;
44642;SDS011;33930;-34.276;150.954;2022-09-02T14:33:47;11.40;;;2.28;;
44642;SDS011;33930;-34.276;150.954;2022-09-02T14:51:35;12.82;;;1.77;;
44642;SDS011;33930;-34.276;150.954;2022-09-02T14:54:05;20.63;;;3.20;;
44642;SDS011;33930;-34.276;150.954;2022-09-02T14:56:42;11.85;;;1.65;;
44642;SDS011;33930;-34.276;150.954;2022-09-02T14:59:15;6.63;;;1.40;;
44642;SDS011;33930;-34.276;150.954;2022-09-02T15:01:47;23.85;;;1.85;;
44642;SDS011;33930;-34.276;150.954;2022-09-02T15:04:16;12.05;;;1.98;;
44642;SDS011;33930;-34.276;150.954;2022-09-02T15:06:44;11.30;;;1.30;;
44642;SDS011;33930;-34.276;150.954;2022-09-02T15:09:13;10.52;;;1.80;;
44642;SDS011;33930;-34.276;150.954;2022-09-02T15:11:41;7.40;;;1.50;;
44642;SDS011;33930;-34.276;150.954;2022-09-02T15:14:12;6.35;;;1.55;;
44642;SDS011;33930;-34.276;150.954;2022-09-02T15:16:40;6.07;;;1.45;;
44642;SDS011;33930;-34.276;150.954;2022-09-02T15:19:07;11.90;;;1.48;;
44642;SDS011;33930;-34.276;150.954;2022-09-02T15:21:34;9.18;;;2.33;;
44642;SDS011;33930;-34.276;150.954;2022-09-02T15:24:02;11.48;;;1.65;;
44642;SDS011;33930;-34.276;150.954;2022-09-02T15:26:29;6.35;;;1.30;;
44642;SDS011;33930;-34.276;150.954;2022-09-02T15:28:56;7.95;;;1.30;;
44642;SDS011;33930;-34.276;150.954;2022-09-02T15:31:24;13.75;;;1.85;;
44642;SDS011;33930;-34.276;150.954;2022-09-02T15:33:51;10.30;;;1.45;;
44642;SDS011;33930;-34.276;150.954;2022-09-02T15:36:18;18.17;;;1.70;;
44642;SDS011;33930;-34.276;150.954;2022-09-02T15:38:46;11.25;;;1.88;;
44642;SDS011;33930;-34.276;150.954;2022-09-02T15:41:17;9.45;;;1.70;;
44642;SDS011;33930;-34.276;150.954;2022-09-02T15:43:46;10.55;;;1.73;;
44642;SDS011;33930;-34.276;150.954;2022-09-02T15:46:18;9.20;;;1.60;;
44642;SDS011;33930;-34.276;150.954;2022-09-02T15:48:49;6.93;;;0.95;;
44642;SDS011;33930;-34.276;150.954;2022-09-02T15:51:18;8.85;;;1.85;;
44642;SDS011;33930;-34.276;150.954;2022-09-02T15:53:52;8.43;;;1.20;;
44642;SDS011;33930;-34.276;150.954;2022-09-02T15:56:26;10.00;;;1.02;;
44642;SDS011;33930;-34.276;150.954;2022-09-02T15:58:58;3.92;;;1.45;;
44642;SDS011;33930;-34.276;150.954;2022-09-02T16:01:34;11.20;;;1.30;;
44642;SDS011;33930;-34.276;150.954;2022-09-02T16:04:09;4.10;;;0.93;;
44642;SDS011;33930;-34.276;150.954;2022-09-02T16:06:38;7.15;;;1.83;;
44642;SDS011;33930;-34.276;150.954;2022-09-02T16:09:08;15.75;;;2.15;;
44642;SDS011;33930;-34.276;150.954;2022-09-02T16:11:37;11.15;;;1.05;;
44642;SDS011;33930;-34.276;150.954;2022-09-02T16:14:06;8.65;;;1.10;;
44642;SDS011;33930;-34.276;150.954;2022-09-02T16:16:33;9.27;;;1.48;;
44642;SDS011;33930;-34.276;150.954;2022-09-02T16:19:01;6.50;;;1.95;;
44642;SDS011;33930;-34.276;150.954;2022-09-02T16:21:30;9.07;;;1.30;;
44642;SDS011;33930;-34.276;150.954;2022-09-02T16:23:57;9.95;;;1.30;;
44642;SDS011;33930;-34.276;150.954;2022-09-02T16:26:32;17.10;;;1.75;;
44642;SDS011;33930;-34.276;150.954;2022-09-02T16:29:06;10.15;;;0.90;;
44642;SDS011;33930;-34.276;150.954;2022-09-02T16:31:35;5.10;;;1.08;;
44642;SDS011;33930;-34.276;150.954;2022-09-02T16:34:04;5.90;;;1.20;;
44642;SDS011;33930;-34.276;150.954;2022-09-02T16:36:45;11.55;;;1.40;;
44642;SDS011;33930;-34.276;150.954;2022-09-02T16:39:16;6.90;;;1.05;;
44642;SDS011;33930;-34.276;150.954;2022-09-02T16:41:46;6.07;;;1.08;;
44642;SDS011;33930;-34.276;150.954;2022-09-02T16:44:16;4.97;;;0.82;;
44642;SDS011;33930;-34.276;150.954;2022-09-02T16:46:45;5.30;;;0.70;;
44642;SDS011;33930;-34.276;150.954;2022-09-02T16:49:15;4.35;;;0.93;;
44642;SDS011;33930;-34.276;150.954;2022-09-02T16:51:47;6.28;;;1.55;;
44642;SDS011;33930;-34.276;150.954;2022-09-02T16:54:16;7.80;;;1.35;;
44642;SDS011;33930;-34.276;150.954;2022-09-02T16:56:45;6.15;;;1.20;;
44642;SDS011;33930;-34.276;150.954;2022-09-02T16:59:13;11.65;;;1.05;;
44642;SDS011;33930;-34.276;150.954;2022-09-02T17:01:40;5.70;;;0.77;;
44642;SDS011;33930;-34.276;150.954;2022-09-02T17:04:07;7.68;;;0.90;;
44642;SDS011;33930;-34.276;150.954;2022-09-02T17:06:35;6.30;;;1.08;;
44642;SDS011;33930;-34.276;150.954;2022-09-02T17:09:03;4.85;;;1.00;;
44642;SDS011;33930;-34.276;150.954;2022-09-02T17:11:32;8.38;;;0.95;;
44642;SDS011;33930;-34.276;150.954;2022-09-02T17:14:03;5.28;;;1.30;;
44642;SDS011;33930;-34.276;150.954;2022-09-02T17:16:33;8.63;;;1.80;;
44642;SDS011;33930;-34.276;150.954;2022-09-02T17:19:20;9.57;;;1.00;;
44642;SDS011;33930;-34.276;150.954;2022-09-02T17:21:49;7.13;;;1.05;;
44642;SDS011;33930;-34.276;150.954;2022-09-02T17:24:18;4.93;;;1.00;;
44642;SDS011;33930;-34.276;150.954;2022-09-02T17:26:49;6.60;;;1.05;;
44642;SDS011;33930;-34.276;150.954;2022-09-02T17:29:20;9.00;;;0.95;;
44642;SDS011;33930;-34.276;150.954;2022-09-02T17:31:49;4.47;;;0.88;;
44642;SDS011;33930;-34.276;150.954;2022-09-02T17:34:16;3.70;;;1.25;;
44642;SDS011;33930;-34.276;150.954;2022-09-02T17:36:43;4.15;;;0.90;;
44642;SDS011;33930;-34.276;150.954;2022-09-02T17:39:13;7.35;;;0.95;;
44642;SDS011;33930;-34.276;150.954;2022-09-02T17:41:43;6.20;;;1.10;;
44642;SDS011;33930;-34.276;150.954;2022-09-02T17:47:00;5.53;;;0.70;;
44642;SDS011;33930;-34.276;150.954;2022-09-02T17:49:39;7.85;;;1.60;;
44642;SDS011;33930;-34.276;150.954;2022-09-02T17:52:09;13.93;;;2.88;;
44642;SDS011;33930;-34.276;150.954;2022-09-02T17:54:41;5.95;;;2.30;;
44642;SDS011;33930;-34.276;150.954;2022-09-02T18:10:36;5.05;;;0.73;;
44642;SDS011;33930;-34.276;150.954;2022-09-02T18:13:06;4.22;;;0.98;;
44642;SDS011;33930;-34.276;150.954;2022-09-02T18:18:35;6.53;;;0.90;;
44642;SDS011;33930;-34.276;150.954;2022-09-02T18:21:24;2.63;;;0.80;;
44642;SDS011;33930;-34.276;150.954;2022-09-02T18:26:52;7.75;;;1.33;;
44642;SDS011;33930;-34.276;150.954;2022-09-02T18:29:42;5.00;;;0.50;;
44642;SDS011;33930;-34.276;150.954;2022-09-02T18:41:05;7.68;;;0.95;;
44642;SDS011;33930;-34.276;150.954;2022-09-02T18:46:12;4.65;;;0.47;;
44642;SDS011;33930;-34.276;150.954;2022-09-02T18:48:42;5.30;;;0.50;;
44642;SDS011;33930;-34.276;150.954;2022-09-02T18:53:44;4.05;;;0.75;;
44642;SDS011;33930;-34.276;150.954;2022-09-02T18:56:14;2.50;;;0.57;;
44642;SDS011;33930;-34.276;150.954;2022-09-02T18:58:47;4.32;;;0.95;;
44642;SDS011;33930;-34.276;150.954;2022-09-02T19:01:35;3.50;;;0.45;;
44642;SDS011;33930;-34.276;150.954;2022-09-02T19:04:12;5.63;;;0.82;;
44642;SDS011;33930;-34.276;150.954;2022-09-02T19:06:40;5.53;;;0.70;;
44642;SDS011;33930;-34.276;150.954;2022-09-02T19:09:10;1.40;;;0.30;;
44642;SDS011;33930;-34.276;150.954;2022-09-02T19:11:39;1.58;;;0.73;;